ADDS METAR Data INFO
IDs: Format: Raw Decoded Include TAF

Data at: 2052 UTC 26 May 2017

KAFW 261953Z 19009G22KT 10SM FEW045 SCT250 36/23 A2974 RMK AO2 SLP055 T03560228
KAFW 261853Z 18010G17KT 10SM FEW045 FEW250 34/23 A2975 RMK AO2 SLP057 T03440233
KAFW 261753Z 22014G24KT 10SM FEW045 FEW250 34/23 A2976 RMK AO2 SLP061 T03440228 10344 20233 52001
KAFW 261653Z 23013G20KT 10SM FEW040 FEW250 33/23 A2976 RMK AO2 SLP062 T03280228
KAFW 261553Z 21013G21KT 10SM FEW030 SCT250 31/23 A2976 RMK AO2 SLP060 T03110228
KAFW 261453Z 21014G24KT 10SM FEW025 SCT250 29/22 A2976 RMK AO2 SLP061 T02890222 51017
KAFW 261353Z 20011G22KT 10SM FEW020 SCT250 27/22 A2975 RMK AO2 SLP059 T02670217
KAFW 261253Z 18009G17KT 10SM FEW015 BKN250 25/22 A2973 RMK AO2 SLP050 T02500217
KAFW 261153Z 19011KT 10SM FEW015 BKN300 23/21 A2971 RMK AO2 SLP045 T02330211 10261 20228 51012
KAFW 261053Z 20010G20KT 10SM BKN300 23/21 A2970 RMK AO2 SLP041 T02330211
KAFW 260953Z 19016G23KT 10SM BKN300 23/21 A2968 RMK AO2 SLP035 T02330206
KAFW 260853Z 19012G20KT 10SM BKN300 24/21 A2967 RMK AO2 SLP032 T02390206 53013
KAFW 260753Z 20009G21KT 10SM SCT300 24/20 A2966 RMK AO2 SLP027 T02440200
KAFW 260653Z 19013G22KT 10SM SCT300 25/19 A2964 RMK AO2 PK WND 18026/0631 SLP020 T02500194
KAFW 260553Z 19016G24KT 10SM BKN300 26/18 A2963 RMK AO2 SLP018 T02610183 10322 20261 403390144 51014
KAFW 260453Z 18011G17KT 10SM BKN300 26/17 A2963 RMK AO2 SLP018 T02610172
KAFW 260353Z 17015G23KT 10SM BKN300 27/17 A2961 RMK AO2 SLP011 T02720172
KAFW 260253Z 17014G23KT 10SM BKN300 28/17 A2959 RMK AO2 SLP006 T02830167 53007
KAFW 260153Z 17013G22KT 10SM BKN300 29/16 A2958 RMK AO2 SLP004 T02890161
KAFW 260053Z 16014G21KT 10SM BKN300 31/16 A2957 RMK AO2 SLP002 T03060161
KAFW 252353Z 18013G20KT 10SM BKN300 32/16 A2957 RMK AO2 SLP002 T03220156 10339 20311 58008
KAFW 252253Z 18016G26KT 10SM BKN300 33/14 A2958 RMK AO2 PK WND 19026/2206 SLP005 T03280144
KAFW 252153Z 18017G23KT 10SM BKN300 33/13 A2959 RMK AO2 PK WND 18028/2128 SLP007 T03330133
KAFW 252053Z 19016G25KT 10SM BKN300 32/12 A2960 RMK AO2 PK WND 19028/2023 SLP011 T03170122 56015
KAFW 251953Z 18015G23KT 10SM BKN250 33/13 A2961 RMK AO2 PK WND 17029/1936 SLP012 T03330128
KAFW 251853Z 18015G26KT 10SM SCT250 33/13 A2962 RMK AO2 PK WND 18027/1814 SLP018 T03280133
KAFW 251753Z 20011G22KT 10SM FEW250 32/14 A2964 RMK AO2 SLP025 T03170139 10317 20144 58018
KAFW 251653Z 18010G22KT 10SM FEW250 29/13 A2967 RMK AO2 SLP034 T02940133
KAFW 251553Z 20009G18KT 10SM FEW250 27/12 A2969 RMK AO2 SLP042 T02670122
KAFW 251453Z 18007KT 10SM FEW120 24/12 A2970 RMK AO2 SLP047 T02390117 55001
KAFW 251353Z 16008G16KT 10SM FEW120 21/12 A2969 RMK AO2 SLP045 T02110117
KAFW 251253Z 15009KT 10SM FEW150 18/12 A2970 RMK AO2 SLP046 T01830117
KAFW 251153Z 12005KT 10SM CLR 14/11 A2970 RMK AO2 SLP048 T01440111 10178 20144 53009
KAFW 251053Z 13006KT 10SM CLR 15/11 A2968 RMK AO2 SLP040 T01500106
KAFW 250953Z 00000KT 10SM CLR 15/11 A2967 RMK AO2 SLP038 T01500106
KAFW 250853Z 11004KT 10SM CLR 16/10 A2967 RMK AO2 SLP039 T01610100 58005


Page loaded:  20:52 UTC  |   01:52 PM Pacific  |   02:52 PM Mountain  |   03:52 PM Central  |   04:52 PM Eastern

 

ADVISORIES

FORECASTS

FORECASTS

OBSERVATIONS

USER TOOLS

ABOUT US